KIWD/IWD METAR and TAF weather

Enter ICAO airport designator
Station Type Date Time Source
KIWD METAR 2019/06/19 03:46 UTC NOAA

KIWD 190346Z AUTO 00000KT 3/4SM BR VV002 09/08 A2994 RMK AO2 TSNO RVRNO


Station Type Date Time Source
KIWD Decoded METAR 2019/06/19 03:46 UTC NOAA

Ironwood, Gogebic-Iron County Airport, MI, United States (KIWD) 46-32N 090-08W
Jun 18, 2019 - 11:46 PM EDT / 2019.06.19 0346 UTC
Wind: Calm:0
Visibility: 3/4 mile(s):0
Sky conditions: obscured
Weather: mist
Temperature: 48 F (9 C)
Dew Point: 46 F (8 C)
Relative Humidity: 93%
Pressure (altimeter): 29.94 in. Hg (1013 hPa)
ob: KIWD 190346Z AUTO 00000KT 3/4SM BR VV002 09/08 A2994 RMK AO2 TSNO RVRNO
cycle: 4

Station Type Date Time Source
KIWD TAF 2019/06/18 21:06 UTC NOAA

TAF
AMD KIWD 182105Z 1821/1918 34007KT P6SM BKN022
TEMPO 1821/1823 SCT025 BKN035
FM182300 35005KT P6SM SCT035
FM190300 00000KT P6SM BKN060
FM190800 00000KT 4SM BR BKN006
FM191200 09004KT P6SM SKC

Example: see airport list